Time;durP1;ratioP1;P1;durP2;ratioP2;P2;SDS_P1;SDS_P2;PMS_P1;PMS_P2;Temp;Humidity;BMP_temperature;BMP_pressure;BME280_temperature;BME280_humidity;BME280_pressure;Samples;Min_cycle;Max_cycle;Signal;HPM_P1;HPM_P2
2023/03/02 00:01:55;;;;;;;5.80;5.30;;;23.60;64.00;;;;;;6209106;28;83292;-67
2023/03/02 00:04:58;;;;;;;5.90;5.30;;;23.60;64.00;;;;;;6206171;28;83881;-67
2023/03/02 00:08:03;;;;;;;6.13;5.50;;;23.50;63.90;;;;;;6207679;28;82932;-67
2023/03/02 00:11:05;;;;;;;6.38;5.50;;;23.50;63.80;;;;;;6207799;28;85088;-67
2023/03/02 00:14:07;;;;;;;6.10;5.50;;;23.50;63.80;;;;;;6206806;28;84059;-67
2023/03/02 00:17:10;;;;;;;6.43;5.82;;;23.50;63.80;;;;;;6207576;28;84126;-67
2023/03/02 00:20:12;;;;;;;6.28;5.68;;;23.50;63.70;;;;;;6208755;28;82907;-67
2023/03/02 00:23:16;;;;;;;6.10;5.15;;;23.50;63.60;;;;;;6207521;28;84180;-67
2023/03/02 00:26:19;;;;;;;6.85;5.43;;;23.50;63.50;;;;;;6206118;28;84123;-68
2023/03/02 00:29:21;;;;;;;6.40;5.68;;;23.40;63.30;;;;;;6199174;28;84332;-67
2023/03/02 00:32:23;;;;;;;6.63;6.03;;;23.40;63.30;;;;;;6207608;28;83673;-68
2023/03/02 00:35:25;;;;;;;7.00;5.90;;;23.40;63.30;;;;;;6208221;28;83972;-67
2023/03/02 00:38:29;;;;;;;7.82;6.20;;;23.40;63.20;;;;;;6196716;28;83256;-67
2023/03/02 00:41:31;;;;;;;6.78;6.13;;;23.40;63.10;;;;;;6204302;28;85075;-67
2023/03/02 00:44:33;;;;;;;6.47;5.88;;;23.40;63.20;;;;;;6205690;28;84150;-67
2023/03/02 00:47:36;;;;;;;6.40;5.80;;;23.40;63.00;;;;;;6207633;28;84077;-67
2023/03/02 00:50:39;;;;;;;6.50;5.90;;;23.40;63.00;;;;;;6207865;28;83949;-67
2023/03/02 00:53:43;;;;;;;6.78;6.07;;;23.30;63.00;;;;;;6206192;28;84205;-67
2023/03/02 00:56:45;;;;;;;6.40;5.68;;;23.40;63.00;;;;;;6207861;28;83989;-67
2023/03/02 00:59:47;;;;;;;7.95;6.55;;;23.30;62.90;;;;;;6207491;28;84324;-67
2023/03/02 01:02:50;;;;;;;7.75;7.05;;;23.30;62.20;;;;;;6208791;28;83413;-67
2023/03/02 01:05:55;;;;;;;8.15;7.20;;;23.30;61.50;;;;;;6205934;28;83580;-68
2023/03/02 01:08:58;;;;;;;9.10;6.45;;;23.30;61.10;;;;;;6206203;28;83689;-67
2023/03/02 01:12:00;;;;;;;7.38;6.65;;;23.30;61.70;;;;;;6204708;28;85273;-68
2023/03/02 01:15:03;;;;;;;7.45;6.75;;;23.20;61.90;;;;;;6206738;28;83986;-67
2023/03/02 01:18:06;;;;;;;7.43;6.68;;;23.20;62.10;;;;;;6207459;28;83941;-68
2023/03/02 01:21:10;;;;;;;7.35;6.65;;;23.30;62.30;;;;;;6206041;28;83999;-68
2023/03/02 01:24:14;;;;;;;7.88;6.78;;;23.20;62.30;;;;;;6204564;28;84325;-67
2023/03/02 01:27:16;;;;;;;8.27;6.88;;;23.20;62.40;;;;;;6207240;28;84345;-67
2023/03/02 01:30:18;;;;;;;7.55;6.75;;;23.20;62.40;;;;;;6206400;28;82848;-67
2023/03/02 01:33:21;;;;;;;8.25;7.45;;;23.20;62.50;;;;;;6210412;28;83532;-68
2023/03/02 01:36:24;;;;;;;7.63;6.90;;;23.20;62.50;;;;;;6209744;28;84204;-67
2023/03/02 01:39:27;;;;;;;7.68;6.88;;;23.20;62.60;;;;;;6210389;28;84042;-67
2023/03/02 01:42:34;;;;;;;8.00;7.20;;;23.20;62.70;;;;;;6209846;28;85024;-68
2023/03/02 01:45:54;;;;;;;8.20;7.40;;;23.10;62.60;;;;;;6211457;28;82955;-68
2023/03/02 01:49:00;;;;;;;8.20;7.43;;;23.10;62.70;;;;;;6210080;28;82910;-68
2023/03/02 01:52:02;;;;;;;8.77;7.88;;;23.10;62.70;;;;;;6210595;28;84100;-67
2023/03/02 01:55:09;;;;;;;10.07;8.20;;;23.10;62.80;;;;;;6211128;28;84063;-67
2023/03/02 01:58:14;;;;;;;8.85;7.95;;;23.10;62.80;;;;;;6208516;28;82900;-68
2023/03/02 02:01:16;;;;;;;8.45;7.43;;;23.10;62.70;;;;;;6210550;28;84003;-67
2023/03/02 02:04:19;;;;;;;8.98;8.07;;;23.10;62.80;;;;;;6210556;28;83362;-67
2023/03/02 02:07:22;;;;;;;8.77;7.97;;;23.10;62.70;;;;;;6209764;28;83011;-67
2023/03/02 02:10:25;;;;;;;9.43;8.50;;;23.10;62.60;;;;;;6211936;28;82942;-68
2023/03/02 02:13:27;;;;;;;9.20;8.30;;;23.00;62.60;;;;;;6208718;28;84950;-67
2023/03/02 02:16:33;;;;;;;9.75;8.57;;;23.00;62.70;;;;;;6209168;28;84100;-68
2023/03/02 02:19:53;;;;;;;9.85;8.95;;;23.00;62.70;;;;;;6204110;28;84370;-67
2023/03/02 02:23:05;;;;;;;9.57;8.57;;;23.00;62.70;;;;;;6206641;28;82981;-67
2023/03/02 02:26:20;;;;;;;10.35;9.35;;;23.00;62.70;;;;;;6209119;28;85158;-68
2023/03/02 02:29:26;;;;;;;10.00;9.00;;;23.00;62.80;;;;;;6206315;28;83906;-67
2023/03/02 02:32:32;;;;;;;10.20;9.15;;;23.00;62.80;;;;;;6209473;28;83949;-68
2023/03/02 02:35:37;;;;;;;10.10;9.10;;;23.00;62.80;;;;;;6205295;28;83471;-68
2023/03/02 02:38:41;;;;;;;10.30;9.30;;;23.00;62.80;;;;;;6207508;28;84025;-67
2023/03/02 02:41:48;;;;;;;10.80;9.70;;;23.00;62.80;;;;;;6209106;28;83988;-67
2023/03/02 02:44:51;;;;;;;10.95;9.90;;;22.90;62.80;;;;;;6196794;28;84300;-67
2023/03/02 02:47:55;;;;;;;11.07;10.07;;;22.90;62.80;;;;;;6209693;28;84387;-67
2023/03/02 02:51:00;;;;;;;10.32;9.32;;;22.90;62.90;;;;;;6208602;28;84137;-68
2023/03/02 02:54:03;;;;;;;10.80;9.80;;;22.90;63.90;;;;;;6209928;28;82899;-68
2023/03/02 02:57:07;;;;;;;11.35;10.15;;;22.90;63.10;;;;;;6208111;28;83978;-68
2023/03/02 03:00:18;;;;;;;10.98;9.88;;;22.90;63.20;;;;;;6207262;28;82828;-68
2023/03/02 03:03:29;;;;;;;11.00;9.95;;;22.90;63.20;;;;;;6208759;28;84046;-68
2023/03/02 03:06:41;;;;;;;11.75;10.55;;;22.90;63.20;;;;;;6208771;28;82378;-68
2023/03/02 03:09:43;;;;;;;11.93;10.73;;;22.90;63.30;;;;;;6208384;28;85053;-68
2023/03/02 03:12:47;;;;;;;11.60;10.40;;;22.80;63.20;;;;;;6203831;28;83274;-68
2023/03/02 03:15:49;;;;;;;11.43;10.30;;;22.90;63.20;;;;;;6207258;28;85277;-67
2023/03/02 03:18:53;;;;;;;11.93;10.70;;;22.80;63.20;;;;;;6207968;28;84127;-68
2023/03/02 03:21:57;;;;;;;11.27;10.18;;;22.90;63.30;;;;;;6198118;28;84044;-68
2023/03/02 03:24:59;;;;;;;11.68;10.48;;;22.80;63.20;;;;;;6207761;28;84144;-67
2023/03/02 03:28:03;;;;;;;11.95;10.77;;;22.80;63.30;;;;;;6206896;28;84110;-67
2023/03/02 03:31:05;;;;;;;11.05;9.95;;;22.80;63.30;;;;;;6206478;28;83834;-67
2023/03/02 03:34:08;;;;;;;11.63;10.52;;;22.80;63.30;;;;;;6207717;28;83337;-68
2023/03/02 03:37:12;;;;;;;11.38;10.18;;;22.80;63.40;;;;;;6208006;28;83321;-68
2023/03/02 03:40:15;;;;;;;11.98;10.88;;;22.80;63.50;;;;;;6207360;28;83018;-68
2023/03/02 03:43:18;;;;;;;12.38;10.70;;;22.80;63.50;;;;;;6204940;28;84118;-68
2023/03/02 03:46:20;;;;;;;11.60;10.48;;;22.80;63.40;;;;;;6206493;28;83862;-68
2023/03/02 03:49:23;;;;;;;12.05;10.52;;;22.80;63.50;;;;;;6205696;28;83198;-68
2023/03/02 03:52:29;;;;;;;12.52;11.32;;;22.70;63.40;;;;;;6207667;28;83713;-67
2023/03/02 03:55:31;;;;;;;11.52;10.43;;;22.80;63.40;;;;;;6203257;28;85542;-68
2023/03/02 03:58:35;;;;;;;11.25;10.07;;;22.80;63.50;;;;;;6207736;28;82895;-67
2023/03/02 04:01:39;;;;;;;11.80;10.63;;;22.70;63.50;;;;;;6206697;28;84826;-67
2023/03/02 04:04:41;;;;;;;11.52;10.40;;;22.70;63.50;;;;;;6204905;28;83998;-68
2023/03/02 04:07:44;;;;;;;12.15;10.90;;;22.70;63.50;;;;;;6206777;28;84120;-68
2023/03/02 04:10:46;;;;;;;12.88;11.48;;;22.70;63.50;;;;;;6206069;28;84001;-68
2023/03/02 04:13:49;;;;;;;12.60;11.30;;;22.70;63.60;;;;;;6206794;28;84094;-67
2023/03/02 04:16:52;;;;;;;12.13;10.93;;;22.60;63.50;;;;;;6206530;28;84868;-68
2023/03/02 04:19:55;;;;;;;11.15;10.05;;;22.70;63.70;;;;;;6208046;28;83980;-68
2023/03/02 04:22:58;;;;;;;11.85;10.68;;;22.70;63.70;;;;;;6205301;28;83994;-67
2023/03/02 04:26:03;;;;;;;11.02;10.02;;;22.70;63.60;;;;;;6207268;28;84012;-67
2023/03/02 04:29:08;;;;;;;11.32;10.23;;;22.70;63.40;;;;;;6204387;28;84224;-67
2023/03/02 04:32:10;;;;;;;12.38;11.07;;;22.70;64.40;;;;;;6206887;28;83980;-68
2023/03/02 04:35:13;;;;;;;10.90;9.80;;;22.70;63.30;;;;;;6206372;28;84155;-67
2023/03/02 04:38:15;;;;;;;11.82;10.68;;;22.70;63.30;;;;;;6201779;28;83386;-67
2023/03/02 04:41:18;;;;;;;11.95;10.77;;;22.70;63.30;;;;;;6206694;28;83690;-68
2023/03/02 04:44:21;;;;;;;11.20;9.95;;;22.70;63.30;;;;;;6205835;28;83747;-67
2023/03/02 04:47:24;;;;;;;11.35;10.35;;;22.70;63.30;;;;;;6206438;28;84973;-68
2023/03/02 04:50:26;;;;;;;11.10;10.10;;;22.80;63.40;;;;;;6195190;28;84278;-67
2023/03/02 04:53:28;;;;;;;11.43;10.32;;;22.80;63.30;;;;;;6206925;28;84238;-67
2023/03/02 04:56:31;;;;;;;11.70;10.50;;;22.80;63.30;;;;;;6205107;28;84107;-68
2023/03/02 04:59:34;;;;;;;11.13;10.13;;;22.90;63.40;;;;;;6205089;28;84893;-68
2023/03/02 05:02:36;;;;;;;11.70;10.50;;;22.80;63.30;;;;;;6205399;28;84121;-67
2023/03/02 05:05:39;;;;;;;11.32;10.23;;;22.80;63.30;;;;;;6207093;28;84077;-67
2023/03/02 05:08:41;;;;;;;11.32;10.23;;;22.90;63.30;;;;;;6209631;28;83218;-68
2023/03/02 05:11:43;;;;;;;11.35;10.25;;;22.90;63.30;;;;;;6209643;28;84462;-68
2023/03/02 05:14:46;;;;;;;10.98;9.88;;;23.00;63.30;;;;;;6206872;28;85427;-67
2023/03/02 05:17:48;;;;;;;11.90;10.32;;;23.00;63.20;;;;;;6209787;28;84941;-67
2023/03/02 05:20:51;;;;;;;11.35;10.25;;;23.00;63.20;;;;;;6210656;28;84004;-68
2023/03/02 05:23:53;;;;;;;11.50;10.40;;;23.00;63.20;;;;;;6211364;28;83878;-68
2023/03/02 05:26:56;;;;;;;10.70;9.63;;;23.00;63.20;;;;;;6208782;28;84068;-68
2023/03/02 05:29:59;;;;;;;10.40;9.40;;;23.00;63.00;;;;;;6210329;28;83826;-67
2023/03/02 05:33:01;;;;;;;10.90;9.80;;;23.00;63.00;;;;;;6210723;28;84401;-68
2023/03/02 05:36:04;;;;;;;11.50;10.40;;;23.10;63.10;;;;;;6211209;28;83794;-67
2023/03/02 05:39:07;;;;;;;10.88;9.88;;;23.10;63.10;;;;;;6210900;28;83159;-67
2023/03/02 05:42:10;;;;;;;10.75;9.75;;;23.10;63.00;;;;;;6212148;28;83991;-68
2023/03/02 05:45:20;;;;;;;9.77;8.85;;;23.10;63.00;;;;;;6201257;28;83963;-68
2023/03/02 05:48:22;;;;;;;10.63;9.63;;;23.10;62.90;;;;;;6207124;28;84945;-68
2023/03/02 05:51:24;;;;;;;11.13;10.07;;;23.10;63.00;;;;;;6211017;28;83990;-67
2023/03/02 05:54:26;;;;;;;10.50;9.50;;;23.20;62.90;;;;;;6210147;28;82945;-67
2023/03/02 05:57:28;;;;;;;10.95;9.85;;;23.20;62.90;;;;;;6211344;28;84041;-68
2023/03/02 06:00:32;;;;;;;11.23;10.13;;;23.20;62.90;;;;;;6210696;28;83858;-68
2023/03/02 06:03:34;;;;;;;11.27;10.18;;;23.20;62.80;;;;;;6203020;28;84058;-65
2023/03/02 06:06:36;;;;;;;10.80;9.70;;;23.20;62.90;;;;;;6208915;28;84075;-69
2023/03/02 06:09:38;;;;;;;10.90;9.80;;;23.20;63.10;;;;;;6210398;28;82459;-68
2023/03/02 06:12:41;;;;;;;10.80;9.52;;;23.30;63.60;;;;;;6208952;28;84114;-68
2023/03/02 06:15:44;;;;;;;12.50;9.95;;;23.30;63.80;;;;;;6208686;28;83676;-67
2023/03/02 06:18:47;;;;;;;10.70;9.68;;;23.30;64.00;;;;;;6210102;28;85448;-67
2023/03/02 06:21:49;;;;;;;11.27;10.20;;;23.30;64.00;;;;;;6207313;28;84390;-67
2023/03/02 06:24:53;;;;;;;10.80;9.70;;;23.30;64.00;;;;;;6197978;28;84049;-67
2023/03/02 06:27:56;;;;;;;10.52;9.52;;;23.30;64.00;;;;;;6204827;28;83897;-67
2023/03/02 06:30:59;;;;;;;11.20;10.02;;;23.40;64.00;;;;;;6210164;28;84069;-67
2023/03/02 06:34:01;;;;;;;10.80;9.70;;;23.40;64.10;;;;;;6208722;28;84051;-67
2023/03/02 06:37:03;;;;;;;10.30;9.40;;;23.40;64.00;;;;;;6210689;28;82749;-67
2023/03/02 06:40:09;;;;;;;10.43;9.43;;;23.50;63.70;;;;;;6209765;28;83366;-67
2023/03/02 06:43:11;;;;;;;12.80;10.00;;;23.50;63.60;;;;;;6209871;28;84055;-67
2023/03/02 06:46:14;;;;;;;12.95;9.88;;;23.50;63.60;;;;;;6207042;28;84876;-67
2023/03/02 06:49:16;;;;;;;10.70;9.68;;;23.50;63.50;;;;;;6208514;28;84856;-67
2023/03/02 06:52:19;;;;;;;11.18;9.63;;;23.60;63.50;;;;;;6210513;28;83722;-67
2023/03/02 06:55:21;;;;;;;11.77;10.13;;;23.60;63.60;;;;;;6209302;28;84090;-67
2023/03/02 06:58:23;;;;;;;11.18;9.63;;;23.60;63.70;;;;;;6208587;28;84408;-67
2023/03/02 07:01:31;;;;;;;13.10;10.45;;;23.50;63.60;;;;;;6206996;28;84416;-67
2023/03/02 07:04:33;;;;;;;12.82;10.02;;;23.60;63.70;;;;;;6204736;28;84369;-67
2023/03/02 07:07:35;;;;;;;11.95;10.00;;;23.60;63.70;;;;;;6209431;28;84155;-67
2023/03/02 07:10:37;;;;;;;13.52;10.50;;;23.60;63.60;;;;;;6208348;28;83820;-67
2023/03/02 07:13:40;;;;;;;11.65;10.32;;;23.60;63.60;;;;;;6205561;28;84319;-67
2023/03/02 07:16:43;;;;;;;11.68;10.35;;;23.60;63.50;;;;;;6207347;28;84282;-67
2023/03/02 07:19:45;;;;;;;13.23;10.45;;;23.60;63.50;;;;;;6207065;28;84815;-67
2023/03/02 07:22:48;;;;;;;14.45;10.40;;;23.60;63.50;;;;;;6208738;28;84274;-67
2023/03/02 07:25:50;;;;;;;14.98;11.32;;;23.70;63.70;;;;;;6206105;28;84082;-68
2023/03/02 07:28:52;;;;;;;17.25;11.45;;;23.70;63.80;;;;;;6202953;28;84434;-67
2023/03/02 07:31:56;;;;;;;18.45;11.95;;;23.70;64.40;;;;;;6207937;28;84238;-68
2023/03/02 07:34:58;;;;;;;16.30;11.80;;;23.70;64.80;;;;;;6208088;28;84062;-67
2023/03/02 07:38:00;;;;;;;16.88;11.93;;;23.70;64.80;;;;;;6204350;28;83727;-67
2023/03/02 07:41:07;;;;;;;15.70;11.13;;;23.70;65.20;;;;;;6207917;28;83337;-67
2023/03/02 07:44:09;;;;;;;15.68;10.95;;;23.70;65.00;;;;;;6198802;28;84091;-67
2023/03/02 07:47:12;;;;;;;14.95;11.10;;;23.70;64.90;;;;;;6208480;28;83951;-67
2023/03/02 07:50:14;;;;;;;15.85;11.40;;;23.70;64.70;;;;;;6207247;28;84915;-67
2023/03/02 07:53:17;;;;;;;15.38;10.40;;;23.70;64.60;;;;;;6206037;28;84503;-67
2023/03/02 07:56:19;;;;;;;13.73;10.80;;;23.70;64.60;;;;;;6205838;28;84069;-67
2023/03/02 07:59:21;;;;;;;18.17;14.20;;;23.70;64.50;;;;;;6206039;28;83921;-67
2023/03/02 08:02:25;;;;;;;24.15;19.35;;;23.70;62.30;;;;;;6207270;28;84117;-67
2023/03/02 08:05:27;;;;;;;20.67;17.17;;;23.70;63.60;;;;;;6204924;28;84509;-67
2023/03/02 08:08:29;;;;;;;19.67;16.90;;;23.80;65.70;;;;;;6208414;28;83766;-68
2023/03/02 08:11:31;;;;;;;19.20;15.07;;;23.80;63.30;;;;;;6207253;28;83348;-68
2023/03/02 08:14:33;;;;;;;14.90;13.27;;;23.80;62.30;;;;;;6207445;28;82911;-67
2023/03/02 08:17:37;;;;;;;16.00;13.63;;;23.90;62.00;;;;;;6206980;28;83259;-67
2023/03/02 08:20:39;;;;;;;15.88;13.10;;;24.00;61.60;;;;;;6205789;28;84969;-67
2023/03/02 08:23:41;;;;;;;16.90;12.85;;;24.00;60.50;;;;;;6207704;28;83990;-67
2023/03/02 08:26:43;;;;;;;14.82;12.38;;;24.00;60.50;;;;;;6202615;28;83936;-68
2023/03/02 08:29:45;;;;;;;16.23;13.20;;;24.00;60.30;;;;;;6193895;28;83935;-67
2023/03/02 08:32:49;;;;;;;14.32;12.13;;;24.10;60.50;;;;;;6205112;28;84059;-68
2023/03/02 08:35:59;;;;;;;13.13;11.70;;;24.00;60.50;;;;;;6206498;28;84009;-66
2023/03/02 08:39:01;;;;;;;13.85;12.05;;;24.10;60.70;;;;;;6205596;28;84401;-68
2023/03/02 08:42:03;;;;;;;14.05;12.45;;;24.10;60.70;;;;;;6213304;28;83223;-68
2023/03/02 08:45:06;;;;;;;12.60;11.18;;;24.10;60.70;;;;;;6200228;28;84391;-68
2023/03/02 08:48:10;;;;;;;13.43;11.65;;;24.10;60.80;;;;;;6208291;28;84257;-68
2023/03/02 08:51:16;;;;;;;12.07;10.80;;;24.10;60.80;;;;;;6210760;28;84953;-67
2023/03/02 08:54:18;;;;;;;11.75;10.55;;;24.10;61.00;;;;;;6210946;28;84042;-67
2023/03/02 08:57:20;;;;;;;13.38;11.00;;;24.10;61.10;;;;;;6209717;28;84051;-68
2023/03/02 09:00:22;;;;;;;15.10;11.60;;;24.10;61.10;;;;;;6211026;28;84104;-67
2023/03/02 09:03:25;;;;;;;12.52;11.07;;;24.10;60.90;;;;;;6211143;28;84144;-67
2023/03/02 09:06:29;;;;;;;12.15;10.85;;;24.10;60.60;;;;;;6204614;28;84360;-68
2023/03/02 09:09:31;;;;;;;11.45;10.25;;;24.10;60.80;;;;;;6209943;28;84106;-67
2023/03/02 09:12:33;;;;;;;12.05;10.77;;;24.10;60.90;;;;;;6210530;28;83338;-68
2023/03/02 09:15:35;;;;;;;12.63;10.30;;;24.10;61.10;;;;;;6212020;28;83810;-67
2023/03/02 09:18:39;;;;;;;11.93;10.70;;;24.10;61.30;;;;;;6208942;28;82901;-67
2023/03/02 09:21:41;;;;;;;12.25;10.55;;;24.10;61.30;;;;;;6209862;28;85175;-68
2023/03/02 09:24:43;;;;;;;12.15;10.00;;;24.10;61.40;;;;;;6210448;28;84466;-67
2023/03/02 09:27:45;;;;;;;11.50;10.25;;;24.10;61.50;;;;;;6210749;28;84146;-67
2023/03/02 09:30:51;;;;;;;11.57;10.02;;;24.10;61.60;;;;;;6210938;28;84016;-67
2023/03/02 09:33:56;;;;;;;12.45;10.40;;;24.10;61.60;;;;;;6209451;28;83937;-67
2023/03/02 09:36:58;;;;;;;12.30;11.07;;;24.10;61.70;;;;;;6208753;28;84810;-67
2023/03/02 09:40:00;;;;;;;12.85;11.30;;;24.10;61.60;;;;;;6209054;28;84113;-67
2023/03/02 09:43:18;;;;;;;12.98;11.18;;;24.10;60.80;;;;;;6209877;28;83444;-67
2023/03/02 09:46:26;;;;;;;12.45;11.10;;;24.10;60.50;;;;;;6205550;28;82882;-67
2023/03/02 09:49:41;;;;;;;11.82;10.45;;;24.10;61.00;;;;;;6209366;28;84067;-67
2023/03/02 09:52:51;;;;;;;11.88;10.30;;;24.10;62.00;;;;;;6208010;28;85830;-67
2023/03/02 09:55:59;;;;;;;11.05;9.95;;;24.10;62.40;;;;;;6209945;28;82932;-68
2023/03/02 09:59:06;;;;;;;11.88;9.90;;;24.10;62.80;;;;;;6210173;28;83403;-67
2023/03/02 10:02:24;;;;;;;11.23;9.45;;;24.10;62.90;;;;;;6210344;28;83984;-67
2023/03/02 10:05:34;;;;;;;11.57;9.38;;;24.10;63.20;;;;;;6210163;28;83955;-68
2023/03/02 10:08:39;;;;;;;11.40;10.20;;;24.10;63.30;;;;;;6209424;28;84003;-66
2023/03/02 10:11:54;;;;;;;16.70;14.73;;;24.10;63.50;;;;;;6202777;28;84016;-69
2023/03/02 10:15:03;;;;;;;18.73;15.90;;;23.90;58.60;;;;;;6209766;28;83681;-69
2023/03/02 10:18:14;;;;;;;20.17;18.02;;;23.70;55.70;;;;;;6208245;28;83048;-68
2023/03/02 10:21:22;;;;;;;21.40;17.15;;;23.20;52.40;;;;;;6205834;28;83987;-68
2023/03/02 10:24:31;;;;;;;17.23;15.32;;;22.80;53.50;;;;;;6204388;28;85827;-69
2023/03/02 10:27:38;;;;;;;19.63;17.50;;;22.70;54.30;;;;;;6206641;28;84176;-69
2023/03/02 10:30:40;;;;;;;21.50;16.50;;;22.50;53.70;;;;;;6207038;28;84068;-68
2023/03/02 10:33:42;;;;;;;20.25;17.38;;;22.50;53.90;;;;;;6208562;28;84564;-69
2023/03/02 10:36:46;;;;;;;19.80;15.95;;;22.30;53.20;;;;;;6206928;28;83999;-68
2023/03/02 10:39:49;;;;;;;18.27;16.30;;;22.30;55.20;;;;;;6207526;28;84100;-69
2023/03/02 10:42:51;;;;;;;19.83;16.58;;;22.30;54.30;;;;;;6206464;28;84331;-69
2023/03/02 10:46:01;;;;;;;20.17;16.83;;;22.30;53.60;;;;;;6206898;28;83683;-69
2023/03/02 10:49:03;;;;;;;19.05;16.75;;;22.10;53.10;;;;;;6205147;28;84135;-69
2023/03/02 10:52:13;;;;;;;17.83;15.35;;;22.00;53.60;;;;;;6205153;28;84034;-69
2023/03/02 10:55:16;;;;;;;17.83;14.70;;;22.00;54.00;;;;;;6206661;28;84977;-69
2023/03/02 10:58:24;;;;;;;15.63;13.13;;;22.00;54.50;;;;;;6201861;28;85086;-68
2023/03/02 11:01:26;;;;;;;17.08;12.30;;;22.00;54.40;;;;;;6205631;28;83970;-68
2023/03/02 11:04:29;;;;;;;14.98;12.25;;;22.10;54.50;;;;;;6209391;28;84054;-68
2023/03/02 11:07:32;;;;;;;14.15;12.13;;;22.20;54.60;;;;;;6204597;28;84322;-68
2023/03/02 11:10:37;;;;;;;13.02;11.65;;;22.20;54.70;;;;;;6208622;28;83685;-69
2023/03/02 11:13:39;;;;;;;14.27;12.07;;;22.30;54.30;;;;;;6208188;28;83952;-68
2023/03/02 11:16:42;;;;;;;12.80;11.25;;;22.40;54.20;;;;;;6207687;28;82656;-69
2023/03/02 11:19:44;;;;;;;13.07;11.68;;;22.40;54.00;;;;;;6206416;28;84339;-69
2023/03/02 11:22:57;;;;;;;14.80;11.32;;;22.40;54.00;;;;;;6207860;28;83897;-68
2023/03/02 11:26:05;;;;;;;14.60;11.18;;;22.50;54.00;;;;;;6206957;28;85716;-68
2023/03/02 11:29:17;;;;;;;13.73;11.40;;;22.50;53.80;;;;;;6205727;28;84375;-68
2023/03/02 11:32:27;;;;;;;12.35;10.77;;;22.40;53.50;;;;;;6208072;28;84367;-68
2023/03/02 11:35:33;;;;;;;12.77;10.25;;;22.50;53.50;;;;;;6207529;28;82799;-69
2023/03/02 11:38:46;;;;;;;12.27;10.93;;;22.50;53.80;;;;;;6207917;28;84153;-68
2023/03/02 11:41:49;;;;;;;13.45;11.13;;;22.50;53.80;;;;;;6206445;28;84348;-68
2023/03/02 11:44:51;;;;;;;11.80;10.55;;;22.50;53.80;;;;;;6205556;28;84082;-67
2023/03/02 11:47:57;;;;;;;15.68;10.52;;;22.50;54.40;;;;;;6207173;28;83612;-68
2023/03/02 11:51:05;;;;;;;11.93;10.13;;;22.40;54.30;;;;;;6207509;28;85493;-67
2023/03/02 11:54:23;;;;;;;10.50;9.10;;;22.40;54.20;;;;;;6206312;28;83931;-67
2023/03/02 11:57:30;;;;;;;10.70;8.88;;;22.40;54.60;;;;;;6207657;28;85025;-67
2023/03/02 12:00:35;;;;;;;11.27;8.35;;;22.40;55.00;;;;;;6207732;28;82907;-67
2023/03/02 12:03:40;;;;;;;10.15;8.13;;;22.50;55.30;;;;;;6208604;28;83755;-68
2023/03/02 12:06:44;;;;;;;9.80;8.25;;;22.50;55.70;;;;;;6206956;28;83783;-68
2023/03/02 12:09:58;;;;;;;9.75;8.18;;;22.50;56.00;;;;;;6203731;28;84146;-67
2023/03/02 12:13:13;;;;;;;9.27;7.93;;;22.50;56.30;;;;;;6207189;28;83942;-68
2023/03/02 12:16:21;;;;;;;9.73;7.13;;;22.50;56.60;;;;;;6202716;28;84346;-67
2023/03/02 12:19:27;;;;;;;8.40;7.20;;;22.60;56.90;;;;;;6206317;28;83531;-68
2023/03/02 12:22:31;;;;;;;8.60;7.18;;;22.60;57.20;;;;;;6208340;28;83977;-67
2023/03/02 12:25:48;;;;;;;9.52;7.60;;;22.60;57.40;;;;;;6198950;28;84065;-68
2023/03/02 12:28:59;;;;;;;9.68;7.40;;;22.60;57.60;;;;;;6205447;28;84976;-67
2023/03/02 12:32:12;;;;;;;8.93;7.18;;;22.70;57.90;;;;;;6208440;28;84355;-68
2023/03/02 12:35:18;;;;;;;9.57;7.25;;;22.70;58.10;;;;;;6208007;28;84007;-67
2023/03/02 12:38:29;;;;;;;7.68;6.88;;;22.70;58.30;;;;;;6208002;28;84051;-67
2023/03/02 12:41:47;;;;;;;7.82;6.55;;;22.70;58.50;;;;;;6201880;28;84054;-68
2023/03/02 12:44:59;;;;;;;9.77;6.90;;;22.80;58.80;;;;;;6203567;28;84217;-68
2023/03/02 12:48:04;;;;;;;9.02;6.90;;;22.80;59.00;;;;;;6207236;28;84103;-68
2023/03/02 12:51:16;;;;;;;8.05;6.80;;;22.80;59.10;;;;;;6207095;28;83040;-68
2023/03/02 12:54:20;;;;;;;7.50;6.70;;;22.80;59.20;;;;;;6208153;28;83277;-68
2023/03/02 12:57:24;;;;;;;7.20;6.50;;;22.80;59.40;;;;;;6207717;28;82066;-68
2023/03/02 13:00:29;;;;;;;7.05;6.35;;;22.90;59.60;;;;;;6207040;28;84947;-67
2023/03/02 13:03:32;;;;;;;7.18;6.25;;;22.80;59.70;;;;;;6207410;28;84319;-68
2023/03/02 13:06:39;;;;;;;6.95;6.25;;;22.90;59.80;;;;;;6206736;28;84459;-67
2023/03/02 13:09:41;;;;;;;7.40;6.43;;;22.90;59.90;;;;;;6207249;28;84020;-68
2023/03/02 13:12:46;;;;;;;8.38;6.90;;;22.90;60.10;;;;;;6206520;28;83875;-68
2023/03/02 13:15:50;;;;;;;7.70;6.63;;;22.90;60.10;;;;;;6207768;28;84098;-67
2023/03/02 13:18:56;;;;;;;6.88;6.10;;;22.90;60.30;;;;;;6207620;28;84246;-67
2023/03/02 13:21:59;;;;;;;8.20;6.13;;;22.90;60.50;;;;;;6207288;28;83174;-68
2023/03/02 13:25:04;;;;;;;7.35;6.60;;;23.00;60.60;;;;;;6207349;28;82955;-68
2023/03/02 13:28:27;;;;;;;7.68;6.50;;;23.00;60.70;;;;;;6205990;28;84096;-67
2023/03/02 13:31:30;;;;;;;6.25;5.65;;;23.00;60.80;;;;;;6202783;28;84970;-67
2023/03/02 13:34:49;;;;;;;7.05;6.13;;;23.00;61.00;;;;;;6211295;28;84107;-68
2023/03/02 13:37:57;;;;;;;7.35;6.20;;;23.00;61.10;;;;;;6211449;28;84222;-67
2023/03/02 13:41:00;;;;;;;8.30;6.38;;;23.00;61.10;;;;;;6209327;28;84332;-68
2023/03/02 13:44:18;;;;;;;7.32;5.88;;;23.00;61.20;;;;;;6208763;28;83718;-67
2023/03/02 13:47:23;;;;;;;8.20;6.72;;;23.00;61.40;;;;;;6209371;28;84598;-68
2023/03/02 13:50:28;;;;;;;8.63;6.15;;;23.00;61.40;;;;;;6200823;28;83932;-68
2023/03/02 13:53:36;;;;;;;7.55;6.20;;;23.00;61.50;;;;;;6210970;28;83483;-68
2023/03/02 13:56:40;;;;;;;6.65;5.80;;;23.00;61.60;;;;;;6209519;28;84068;-68
2023/03/02 13:59:43;;;;;;;6.30;5.35;;;23.00;61.60;;;;;;6209623;28;83062;-68
2023/03/02 14:02:47;;;;;;;6.85;5.80;;;23.00;61.60;;;;;;6209959;28;85231;-68
2023/03/02 14:05:50;;;;;;;6.55;5.90;;;23.10;61.80;;;;;;6210496;28;84599;-67
2023/03/02 14:08:52;;;;;;;6.85;6.15;;;23.00;61.80;;;;;;6210307;28;82997;-67
2023/03/02 14:11:56;;;;;;;7.03;5.85;;;23.10;61.90;;;;;;6211028;28;84071;-68
2023/03/02 14:15:03;;;;;;;7.53;5.97;;;23.10;61.90;;;;;;6209534;28;82942;-67
2023/03/02 14:18:10;;;;;;;6.43;5.65;;;23.10;62.00;;;;;;6210667;28;84479;-68
2023/03/02 14:21:14;;;;;;;7.03;5.75;;;23.10;62.00;;;;;;6210457;28;84035;-67
2023/03/02 14:24:16;;;;;;;5.93;5.32;;;23.10;62.20;;;;;;6209388;28;83417;-67
2023/03/02 14:27:19;;;;;;;6.60;5.68;;;23.10;62.20;;;;;;6209702;28;84172;-68
2023/03/02 14:30:22;;;;;;;5.85;5.28;;;23.10;62.20;;;;;;6209062;28;84076;-67
2023/03/02 14:33:25;;;;;;;7.07;5.88;;;23.10;62.20;;;;;;6209748;28;84896;-68
2023/03/02 14:36:29;;;;;;;6.63;5.95;;;23.10;62.20;;;;;;6208629;28;84126;-68
2023/03/02 14:39:35;;;;;;;6.03;5.43;;;23.10;62.50;;;;;;6209041;28;84006;-67
2023/03/02 14:42:37;;;;;;;6.50;5.75;;;23.10;62.40;;;;;;6210264;28;84223;-67
2023/03/02 14:45:41;;;;;;;6.10;5.50;;;23.10;62.50;;;;;;6209293;28;83224;-68
2023/03/02 14:48:43;;;;;;;5.63;5.13;;;23.10;62.50;;;;;;6209656;28;83732;-68
2023/03/02 14:51:54;;;;;;;6.50;5.65;;;23.10;62.50;;;;;;6206567;28;84015;-68
2023/03/02 14:55:00;;;;;;;6.05;5.45;;;23.10;62.60;;;;;;6202364;28;83509;-68
2023/03/02 14:58:06;;;;;;;5.80;5.30;;;23.10;62.70;;;;;;6208762;28;84138;-68
2023/03/02 15:01:11;;;;;;;6.55;5.95;;;23.10;62.70;;;;;;6206865;28;83945;-68
2023/03/02 15:04:13;;;;;;;6.30;5.70;;;23.10;62.70;;;;;;6208190;28;85372;-68
2023/03/02 15:07:17;;;;;;;6.00;5.40;;;23.10;62.80;;;;;;6208684;28;82991;-67
2023/03/02 15:10:21;;;;;;;5.90;5.35;;;23.10;62.80;;;;;;6208570;28;84105;-68
2023/03/02 15:13:23;;;;;;;5.93;5.32;;;23.10;62.80;;;;;;6208807;28;83970;-68
2023/03/02 15:16:26;;;;;;;6.45;5.75;;;23.20;62.90;;;;;;6196691;28;83928;-68
2023/03/02 15:19:28;;;;;;;5.90;5.30;;;23.10;62.80;;;;;;6209462;28;83947;-68
2023/03/02 15:22:30;;;;;;;6.30;5.43;;;23.10;62.90;;;;;;6209882;28;83919;-68
2023/03/02 15:25:33;;;;;;;5.88;5.28;;;23.10;62.90;;;;;;6196776;28;83645;-68
2023/03/02 15:28:35;;;;;;;6.00;5.40;;;23.10;62.90;;;;;;6208765;28;84629;-67
2023/03/02 15:31:38;;;;;;;5.60;5.10;;;23.10;63.00;;;;;;6209139;28;83959;-68
2023/03/02 15:34:40;;;;;;;5.93;5.30;;;23.10;63.00;;;;;;6208081;28;85097;-68
2023/03/02 15:37:43;;;;;;;7.07;5.68;;;23.10;63.10;;;;;;6208465;28;83996;-68
2023/03/02 15:40:45;;;;;;;5.35;4.85;;;23.20;63.10;;;;;;6209498;28;84024;-69
2023/03/02 15:43:50;;;;;;;5.85;5.20;;;23.10;63.00;;;;;;6209245;28;83767;-68
2023/03/02 15:46:56;;;;;;;5.82;5.18;;;23.10;63.00;;;;;;6208730;28;83954;-68